createdAt,value
2017-03-18T00:00:43.406Z,49.4
2017-03-18T00:01:52.393Z,49.49
2017-03-18T00:03:01.378Z,49.49
2017-03-18T00:04:10.585Z,49.49
2017-03-18T00:05:19.539Z,49.58
2017-03-18T00:06:28.499Z,49.4
2017-03-18T00:07:37.451Z,49.58
2017-03-18T00:08:46.412Z,49.4
2017-03-18T00:09:55.674Z,49.4
2017-03-18T00:11:04.666Z,49.58
2017-03-18T00:12:13.620Z,49.3
2017-03-18T00:13:22.580Z,49.4
2017-03-18T00:14:31.549Z,49.3
2017-03-18T00:15:40.754Z,49.49
2017-03-18T00:16:49.707Z,49.58
2017-03-18T00:17:58.665Z,49.49
2017-03-18T00:19:07.655Z,49.4
2017-03-18T00:20:16.619Z,49.58
2017-03-18T00:21:25.818Z,49.77
2017-03-18T00:22:34.775Z,49.4
2017-03-18T00:23:43.748Z,49.11
2017-03-18T00:24:52.709Z,48.92
2017-03-18T00:26:01.668Z,49.01
2017-03-18T00:27:10.876Z,48.92
2017-03-18T00:28:19.835Z,49.11
2017-03-18T00:29:28.796Z,49.49
2017-03-18T00:30:38.076Z,49.4
2017-03-18T00:31:47.029Z,49.4
2017-03-18T00:32:56.280Z,49.3
2017-03-18T00:34:05.245Z,49.68
2017-03-18T00:35:14.205Z,49.58
2017-03-18T00:36:23.158Z,48.73
2017-03-18T00:37:32.120Z,49.11
2017-03-18T00:38:41.331Z,49.11
2017-03-18T00:39:50.285Z,48.92
2017-03-18T00:40:59.243Z,49.11
2017-03-18T00:42:08.204Z,49.2
2017-03-18T00:43:17.159Z,49.11
2017-03-18T00:44:26.371Z,49.11
2017-03-18T00:45:35.325Z,49.11
2017-03-18T00:46:44.278Z,49.2
2017-03-18T00:47:53.234Z,49.11
2017-03-18T00:49:02.188Z,49.37
2017-03-18T00:50:11.395Z,49.58
2017-03-18T00:51:20.351Z,49.49
2017-03-18T00:52:29.316Z,49.77
2017-03-18T00:53:38.363Z,49.85
2017-03-18T00:54:47.645Z,49.37
2017-03-18T00:55:56.855Z,50.04
2017-03-18T00:57:05.893Z,50.06
2017-03-18T00:58:14.852Z,49.2
2017-03-18T00:59:23.818Z,49.49
2017-03-18T01:00:32.778Z,49.11
2017-03-18T01:01:42.075Z,48.92
2017-03-18T01:02:51.028Z,49.11
2017-03-18T01:03:59.986Z,49.08
2017-03-18T01:05:09.268Z,49.01
2017-03-18T01:06:18.222Z,48.99
2017-03-18T01:07:27.562Z,49.01
2017-03-18T01:08:36.520Z,49.2
2017-03-18T01:09:45.498Z,49.58
2017-03-18T01:10:54.549Z,49.3
2017-03-18T01:12:03.504Z,49.49
2017-03-18T01:13:13.035Z,49.4
2017-03-18T01:14:21.996Z,49.49
2017-03-18T01:15:30.954Z,49.87
2017-03-18T01:16:39.907Z,49.87
2017-03-18T01:17:48.881Z,49.01
2017-03-18T01:18:58.146Z,49.3
2017-03-18T01:20:07.108Z,49.01
2017-03-18T01:21:16.060Z,49.11
2017-03-18T01:22:25.009Z,49.11
2017-03-18T01:23:33.971Z,49.4
2017-03-18T01:24:43.178Z,49.58
2017-03-18T01:25:52.135Z,49.68
2017-03-18T01:27:01.132Z,49.49
2017-03-18T01:28:10.090Z,50.13
2017-03-18T01:29:19.055Z,50.25
2017-03-18T01:30:28.264Z,50.54
2017-03-18T01:31:37.219Z,50.79
2017-03-18T01:32:46.176Z,51.56
2017-03-18T01:33:55.225Z,53.17
2017-03-18T01:35:04.505Z,54.6
2017-03-18T01:36:13.708Z,56.22
2017-03-18T01:37:22.668Z,57.84
2017-03-18T01:38:31.660Z,59.55
2017-03-18T01:39:40.622Z,60.6
2017-03-18T01:40:49.669Z,61.55
2017-03-18T01:41:58.880Z,62.21
2017-03-18T01:43:07.922Z,63.7
2017-03-18T01:44:16.894Z,66.46
2017-03-18T01:45:25.851Z,67.6
2017-03-18T01:46:34.831Z,68.46
2017-03-18T01:47:44.037Z,69.69
2017-03-18T01:48:53.082Z,70.64
2017-03-18T01:50:02.045Z,72.55
2017-03-18T01:51:11.000Z,73.08
2017-03-18T01:52:19.952Z,70.79
2017-03-18T01:53:29.164Z,72.51
2017-03-18T01:54:38.131Z,73.93
2017-03-18T01:55:47.087Z,73.84
2017-03-18T01:56:56.130Z,75.07
2017-03-18T01:58:05.088Z,74.41
2017-03-18T01:59:14.301Z,75.74
2017-03-18T02:00:23.354Z,77.64
2017-03-18T02:01:32.391Z,78.93
2017-03-18T02:02:41.344Z,78.64
2017-03-18T02:03:50.311Z,78.64
2017-03-18T02:04:59.573Z,79.69
2017-03-18T02:06:08.528Z,80.55
2017-03-18T02:07:17.482Z,81.02
2017-03-18T02:08:26.433Z,81.97
2017-03-18T02:09:35.435Z,81.12
2017-03-18T02:10:44.685Z,80.35
2017-03-18T02:11:53.722Z,81.68
2017-03-18T02:13:02.671Z,83.3
2017-03-18T02:14:11.632Z,83.11
2017-03-18T02:15:20.587Z,83.68
2017-03-18T02:16:29.839Z,84.16
2017-03-18T02:17:38.886Z,84.63
2017-03-18T02:18:47.843Z,85.49
2017-03-18T02:19:56.807Z,86.43
2017-03-18T02:21:05.857Z,87.95
2017-03-18T02:22:15.058Z,89.86
2017-03-18T02:23:24.024Z,91.38
2017-03-18T02:24:32.986Z,91.52
2017-03-18T02:25:41.941Z,92.09
2017-03-18T02:26:50.902Z,92.18
2017-03-18T02:28:00.105Z,92.56
2017-03-18T02:29:09.059Z,93.6
2017-03-18T02:30:18.010Z,93.51
2017-03-18T02:31:27.051Z,93.89
2017-03-18T02:32:36.002Z,93.6
2017-03-18T02:33:45.313Z,93.6
2017-03-18T02:34:54.357Z,93.8
2017-03-18T02:36:03.314Z,94.08
2017-03-18T02:37:12.265Z,93.8
2017-03-18T02:38:21.219Z,93.89
2017-03-18T02:39:30.752Z,94.08
2017-03-18T02:40:39.709Z,93.8
2017-03-18T02:41:48.659Z,93.8
2017-03-18T02:42:57.615Z,93.41
2017-03-18T02:44:06.574Z,93.99
2017-03-18T02:45:15.780Z,93.89
2017-03-18T02:46:24.728Z,93.6
2017-03-18T02:47:33.678Z,94.27
2017-03-18T02:48:42.632Z,94.65
2017-03-18T02:49:51.596Z,95.12
2017-03-18T02:51:00.828Z,95.03
2017-03-18T02:52:09.866Z,94.93
2017-03-18T02:53:19.187Z,95.6
2017-03-18T02:54:28.160Z,95.89
2017-03-18T02:55:37.119Z,95.41
2017-03-18T02:56:46.323Z,95.7
2017-03-18T02:57:55.282Z,95.6
2017-03-18T02:59:04.241Z,95.51
2017-03-18T03:00:13.195Z,95.7
2017-03-18T03:01:22.140Z,95.98
2017-03-18T03:02:31.342Z,95.79
2017-03-18T03:03:40.326Z,95.12
2017-03-18T03:04:49.282Z,95.46
2017-03-18T03:05:58.243Z,95.36
2017-03-18T03:07:07.192Z,95.89
2017-03-18T03:08:16.430Z,95.6
2017-03-18T03:09:25.387Z,95.17
2017-03-18T03:10:34.345Z,95.17
2017-03-18T03:11:43.292Z,95.74
2017-03-18T03:12:52.263Z,95.84
2017-03-18T03:14:01.467Z,95.74
2017-03-18T03:15:10.428Z,95.46
2017-03-18T03:16:19.381Z,95.74
2017-03-18T03:17:28.412Z,95.84
2017-03-18T03:18:37.361Z,95.93
2017-03-18T03:19:46.893Z,95.84
2017-03-18T03:20:55.861Z,95.65
2017-03-18T03:22:04.808Z,95.17
2017-03-18T03:23:13.767Z,95.55
2017-03-18T03:24:22.728Z,95.46
2017-03-18T03:25:31.974Z,95.84
2017-03-18T03:26:40.933Z,96.12
2017-03-18T03:27:49.889Z,96.88
2017-03-18T03:28:58.855Z,96.59
2017-03-18T03:30:08.164Z,96.97
2017-03-18T03:31:17.368Z,96.88
2017-03-18T03:32:26.322Z,96.69
2017-03-18T03:33:35.271Z,96.5
2017-03-18T03:34:44.250Z,96.78
2017-03-18T03:35:53.210Z,96.69
2017-03-18T03:37:02.484Z,96.88
2017-03-18T03:38:11.438Z,96.88
2017-03-18T03:39:20.410Z,96.69
2017-03-18T03:40:29.377Z,96.88
2017-03-18T03:41:38.330Z,96.97
2017-03-18T03:42:47.527Z,97.17
2017-03-18T03:43:56.488Z,97.07
2017-03-18T03:45:05.443Z,97.36
2017-03-18T03:46:14.397Z,97.17
2017-03-18T03:47:23.440Z,97.17
2017-03-18T03:48:32.673Z,96.78
2017-03-18T03:49:41.632Z,96.69
2017-03-18T03:50:50.584Z,97.26
2017-03-18T03:51:59.547Z,97.83
2017-03-18T03:53:08.522Z,97.26
2017-03-18T03:54:17.729Z,97.64
2017-03-18T03:55:27.019Z,97.64
2017-03-18T03:56:35.966Z,97.74
2017-03-18T03:57:44.923Z,97.55
2017-03-18T03:58:53.885Z,97.74
2017-03-18T04:00:03.150Z,97.45
2017-03-18T04:01:12.102Z,97.83
2017-03-18T04:02:21.055Z,97.74
2017-03-18T04:03:30.106Z,97.74
2017-03-18T04:04:39.062Z,96.92
2017-03-18T04:05:48.269Z,97.07
2017-03-18T04:06:57.222Z,97.31
2017-03-18T04:08:06.181Z,97.78
2017-03-18T04:09:15.137Z,97.69
2017-03-18T04:10:24.410Z,97.59
2017-03-18T04:11:33.695Z,97.83
2017-03-18T04:12:42.648Z,97.97
2017-03-18T04:13:51.608Z,98.3
2017-03-18T04:15:00.572Z,98.49
2017-03-18T04:16:09.546Z,98.35
2017-03-18T04:17:18.749Z,98.16
2017-03-18T04:18:27.700Z,98.87
2017-03-18T04:19:36.661Z,98.49
2017-03-18T04:20:45.609Z,98.49
2017-03-18T04:21:54.555Z,98.35
2017-03-18T04:23:03.755Z,98.11
2017-03-18T04:24:12.715Z,98.3
2017-03-18T04:25:21.672Z,98.49
2017-03-18T04:26:30.706Z,98.21
2017-03-18T04:27:39.656Z,98.21
2017-03-18T04:28:48.913Z,98.11
2017-03-18T04:29:57.868Z,98.4
2017-03-18T04:31:06.816Z,98.49
2017-03-18T04:32:15.772Z,97.74
2017-03-18T04:33:24.738Z,97.5
2017-03-18T04:34:33.947Z,97.78
2017-03-18T04:35:42.904Z,97.78
2017-03-18T04:36:51.858Z,97.97
2017-03-18T04:38:00.812Z,98.44
2017-03-18T04:39:09.777Z,97.78
2017-03-18T04:40:19.032Z,97.69
2017-03-18T04:41:28.070Z,98.44
2017-03-18T04:42:37.049Z,98.63
2017-03-18T04:43:46.008Z,98.35
2017-03-18T04:44:54.967Z,97.78
2017-03-18T04:46:04.231Z,98.07
2017-03-18T04:47:13.180Z,98.16
2017-03-18T04:48:22.223Z,98.25
2017-03-18T04:49:31.173Z,98.07
2017-03-18T04:50:40.128Z,98.25
2017-03-18T04:51:49.328Z,98.82
2017-03-18T04:52:58.277Z,99.01
2017-03-18T04:54:07.316Z,98.73
2017-03-18T04:55:16.361Z,99.01
2017-03-18T04:56:25.401Z,98.54
2017-03-18T04:57:34.601Z,98.54
2017-03-18T04:58:43.563Z,98.82
2017-03-18T04:59:52.529Z,98.82
2017-03-18T05:01:01.484Z,98.54
2017-03-18T05:02:10.432Z,98.54
2017-03-18T05:03:19.726Z,99.49
2017-03-18T05:04:28.679Z,98.78
2017-03-18T05:05:37.632Z,98.4
2017-03-18T05:06:46.579Z,98.54
2017-03-18T05:07:55.534Z,98.07
2017-03-18T05:09:04.733Z,98.54
2017-03-18T05:10:13.680Z,98.35
2017-03-18T05:11:22.662Z,98.35
2017-03-18T05:12:31.624Z,98.07
2017-03-18T05:13:40.585Z,98.16
2017-03-18T05:14:49.841Z,98.44
2017-03-18T05:15:58.794Z,98.35
2017-03-18T05:17:07.748Z,98.92
2017-03-18T05:18:16.707Z,98.54
2017-03-18T05:19:25.665Z,99.2
2017-03-18T05:20:34.914Z,99.39
2017-03-18T05:21:43.867Z,99.3
2017-03-18T05:22:52.819Z,99.39
2017-03-18T05:24:01.778Z,99.68
2017-03-18T05:25:10.736Z,99.77
2017-03-18T05:26:19.935Z,99.99
2017-03-18T05:27:29.223Z,99.99
2017-03-18T05:28:38.181Z,99.39
2017-03-18T05:29:47.134Z,98.97
2017-03-18T05:30:56.094Z,99.16
2017-03-18T05:32:05.355Z,99.35
2017-03-18T05:33:14.304Z,99.01
2017-03-18T05:34:23.260Z,99.35
2017-03-18T05:35:32.216Z,99.16
2017-03-18T05:36:41.164Z,99.44
2017-03-18T05:37:50.421Z,99.2
2017-03-18T05:38:59.419Z,99.06
2017-03-18T05:40:08.374Z,99.54
2017-03-18T05:41:17.337Z,99.01
2017-03-18T05:42:26.287Z,98.92
2017-03-18T05:43:35.595Z,99.16
2017-03-18T05:44:44.554Z,99.54
2017-03-18T05:45:53.507Z,99.35
2017-03-18T05:47:02.463Z,99.82
2017-03-18T05:48:11.413Z,99.91
2017-03-18T05:49:20.620Z,99.82
2017-03-18T05:50:29.578Z,99.35
2017-03-18T05:51:38.850Z,99.63
2017-03-18T05:52:47.805Z,99.16
2017-03-18T05:53:56.765Z,99.35
2017-03-18T05:55:06.018Z,99.06
2017-03-18T05:56:14.967Z,99.44
2017-03-18T05:57:23.916Z,99.99
2017-03-18T05:58:32.871Z,99.91
2017-03-18T05:59:41.831Z,99.82
2017-03-18T06:00:51.087Z,99.73
2017-03-18T06:02:00.040Z,99.99
2017-03-18T06:03:08.997Z,99.99
2017-03-18T06:04:17.960Z,99.99
2017-03-18T06:05:26.913Z,99.99
2017-03-18T06:06:36.114Z,99.99
2017-03-18T06:07:45.074Z,99.99
2017-03-18T06:08:54.072Z,99.99
2017-03-18T06:10:03.116Z,99.99
2017-03-18T06:11:12.071Z,99.99
2017-03-18T06:12:21.275Z,99.99
2017-03-18T06:13:30.595Z,99.99
2017-03-18T06:14:39.552Z,99.99
2017-03-18T06:15:48.596Z,99.99
2017-03-18T06:16:57.547Z,99.99
2017-03-18T06:18:06.795Z,99.99
2017-03-18T06:19:15.750Z,99.99
2017-03-18T06:20:24.797Z,99.99
2017-03-18T06:21:33.749Z,99.91
2017-03-18T06:22:42.703Z,99.99
2017-03-18T06:23:51.958Z,99.82
2017-03-18T06:25:00.918Z,99.99
2017-03-18T06:26:09.872Z,99.73
2017-03-18T06:27:18.825Z,99.99
2017-03-18T06:28:27.874Z,99.99
2017-03-18T06:29:37.130Z,99.99
2017-03-18T06:30:46.084Z,99.99
2017-03-18T06:31:55.120Z,99.99
2017-03-18T06:33:04.101Z,99.99
2017-03-18T06:34:13.061Z,99.99
2017-03-18T06:35:22.279Z,99.99
2017-03-18T06:36:31.229Z,99.99
2017-03-18T06:37:40.186Z,99.99
2017-03-18T06:38:49.147Z,99.99
2017-03-18T06:39:58.228Z,99.99
2017-03-18T06:41:07.481Z,99.99
2017-03-18T06:42:16.429Z,99.99
2017-03-18T06:43:25.383Z,99.99
2017-03-18T06:44:34.338Z,99.99
2017-03-18T06:45:43.287Z,99.99
2017-03-18T06:46:52.489Z,99.99
2017-03-18T06:48:01.446Z,99.99
2017-03-18T06:49:10.400Z,99.99
2017-03-18T06:50:19.444Z,99.99
2017-03-18T06:51:28.392Z,99.99
2017-03-18T06:52:37.591Z,99.99
2017-03-18T06:53:46.556Z,99.99
2017-03-18T06:54:55.514Z,99.99
2017-03-18T06:56:04.472Z,99.99
2017-03-18T06:57:13.429Z,99.99
2017-03-18T06:58:22.683Z,99.99
2017-03-18T06:59:31.635Z,99.99
2017-03-18T07:00:40.620Z,99.99
2017-03-18T07:01:49.570Z,99.99
2017-03-18T07:02:58.608Z,99.99
2017-03-18T07:04:07.865Z,99.99
2017-03-18T07:05:16.817Z,99.99
2017-03-18T07:06:25.765Z,99.99
2017-03-18T07:07:34.717Z,99.99
2017-03-18T07:08:43.675Z,99.99
2017-03-18T07:09:52.928Z,99.99
2017-03-18T07:11:01.882Z,99.99
2017-03-18T07:12:10.921Z,99.99
2017-03-18T07:13:19.873Z,99.99
2017-03-18T07:14:28.833Z,99.99
2017-03-18T07:15:38.084Z,99.99
2017-03-18T07:16:47.051Z,99.99
2017-03-18T07:17:56.039Z,99.99
2017-03-18T07:19:05.077Z,99.99
2017-03-18T07:20:14.363Z,99.99
2017-03-18T07:21:23.613Z,99.99
2017-03-18T07:22:32.564Z,99.99
2017-03-18T07:23:41.525Z,99.99
2017-03-18T07:24:50.478Z,99.99
2017-03-18T07:25:59.522Z,99.99
2017-03-18T07:27:08.771Z,99.99
2017-03-18T07:28:17.723Z,99.99
2017-03-18T07:29:26.681Z,99.99
2017-03-18T07:30:35.650Z,99.99
2017-03-18T07:31:44.604Z,99.99
2017-03-18T07:32:53.813Z,99.99
2017-03-18T07:34:02.769Z,99.99
2017-03-18T07:35:11.724Z,99.99
2017-03-18T07:36:20.686Z,99.99
2017-03-18T07:37:29.638Z,99.99
2017-03-18T07:38:38.844Z,99.99
2017-03-18T07:39:47.799Z,99.99
2017-03-18T07:40:56.840Z,99.99
2017-03-18T07:42:05.816Z,99.99
2017-03-18T07:43:14.865Z,99.99
2017-03-18T07:44:24.124Z,99.99
2017-03-18T07:45:33.082Z,99.99
2017-03-18T07:46:42.032Z,99.99
2017-03-18T07:47:51.014Z,99.99
2017-03-18T07:48:59.975Z,99.99
2017-03-18T07:50:09.234Z,99.99
2017-03-18T07:51:18.188Z,99.99
2017-03-18T07:52:27.231Z,99.99
2017-03-18T07:53:36.189Z,99.99
2017-03-18T07:54:45.146Z,99.99
2017-03-18T07:55:54.404Z,99.99
2017-03-18T07:57:03.358Z,99.99
2017-03-18T07:58:12.358Z,99.99
2017-03-18T07:59:21.318Z,99.99
2017-03-18T08:00:30.306Z,99.99
2017-03-18T08:01:39.562Z,99.99
2017-03-18T08:02:48.595Z,99.99
2017-03-18T08:03:57.561Z,99.99
2017-03-18T08:05:06.843Z,99.99
2017-03-18T08:06:15.799Z,99.99
2017-03-18T08:07:25.079Z,99.99
2017-03-18T08:08:34.079Z,99.99
2017-03-18T08:09:43.037Z,99.99
2017-03-18T08:10:51.985Z,99.99
2017-03-18T08:12:00.935Z,99.99
2017-03-18T08:13:10.142Z,99.99
2017-03-18T08:14:19.104Z,99.99
2017-03-18T08:15:28.072Z,99.99
2017-03-18T08:16:37.031Z,99.99
2017-03-18T08:17:45.992Z,99.99
2017-03-18T08:18:55.254Z,99.99
2017-03-18T08:20:04.210Z,99.99
2017-03-18T08:21:13.207Z,99.99
2017-03-18T08:22:22.157Z,99.99
2017-03-18T08:23:31.115Z,99.99
2017-03-18T08:24:40.320Z,99.99
2017-03-18T08:25:49.276Z,99.99
2017-03-18T08:26:58.231Z,99.99
2017-03-18T08:28:07.188Z,99.99
2017-03-18T08:29:16.148Z,99.99
2017-03-18T08:30:25.356Z,99.99
2017-03-18T08:31:34.307Z,99.99
2017-03-18T08:32:43.269Z,99.99
2017-03-18T08:33:52.233Z,99.99
2017-03-18T08:35:01.195Z,99.99
2017-03-18T08:36:10.452Z,99.99
2017-03-18T08:37:19.399Z,99.99
2017-03-18T08:38:28.436Z,99.99
2017-03-18T08:39:37.717Z,99.99
2017-03-18T08:40:46.668Z,99.99
2017-03-18T08:41:56.248Z,99.99
2017-03-18T08:43:05.205Z,99.99
2017-03-18T08:44:14.163Z,99.99
2017-03-18T08:45:23.129Z,99.99
2017-03-18T08:46:32.410Z,99.99
2017-03-18T08:47:41.666Z,99.99
2017-03-18T08:48:50.626Z,99.99
2017-03-18T08:49:59.578Z,99.99
2017-03-18T08:51:08.532Z,99.99
2017-03-18T08:52:17.485Z,99.99
2017-03-18T08:53:26.695Z,99.99
2017-03-18T08:54:35.648Z,99.99
2017-03-18T08:55:44.604Z,99.99
2017-03-18T08:56:53.555Z,99.99
2017-03-18T08:58:02.510Z,99.99
2017-03-18T08:59:11.770Z,99.99
2017-03-18T09:00:20.732Z,99.99
2017-03-18T09:01:29.682Z,99.99
2017-03-18T09:02:38.642Z,99.99
2017-03-18T09:03:47.602Z,99.99
2017-03-18T09:04:56.867Z,99.99
2017-03-18T09:06:05.831Z,99.99
2017-03-18T09:07:14.787Z,99.99
2017-03-18T09:08:23.744Z,99.99
2017-03-18T09:09:32.788Z,99.99
2017-03-18T09:10:42.075Z,99.99
2017-03-18T09:11:51.030Z,99.99
2017-03-18T09:13:00.022Z,99.99
2017-03-18T09:14:09.014Z,99.99
2017-03-18T09:15:17.969Z,99.99
2017-03-18T09:16:27.249Z,99.99
2017-03-18T09:17:36.197Z,99.99
2017-03-18T09:18:45.155Z,99.99
2017-03-18T09:19:54.197Z,99.99
2017-03-18T09:21:03.150Z,99.99
2017-03-18T09:22:12.355Z,99.99
2017-03-18T09:23:21.330Z,99.99
2017-03-18T09:24:30.289Z,99.99
2017-03-18T09:25:39.247Z,99.99
2017-03-18T09:26:48.198Z,99.99
2017-03-18T09:27:57.403Z,99.99
2017-03-18T09:29:06.443Z,99.99
2017-03-18T09:30:15.398Z,99.99
2017-03-18T09:31:24.395Z,99.99
2017-03-18T09:32:33.349Z,99.99
2017-03-18T09:33:42.563Z,99.99
2017-03-18T09:34:51.519Z,99.99
2017-03-18T09:36:00.805Z,99.99
2017-03-18T09:37:09.756Z,99.99
2017-03-18T09:38:18.707Z,99.99
2017-03-18T09:39:27.917Z,99.99
2017-03-18T09:40:36.869Z,99.99
2017-03-18T09:41:45.859Z,99.99
2017-03-18T09:42:54.833Z,99.99
2017-03-18T09:44:03.789Z,99.99
2017-03-18T09:45:13.050Z,99.99
2017-03-18T09:46:22.004Z,99.99
2017-03-18T09:47:30.959Z,99.99
2017-03-18T09:48:39.921Z,99.99
2017-03-18T09:49:48.880Z,99.99
2017-03-18T09:50:58.231Z,99.99
2017-03-18T09:52:07.196Z,99.99
2017-03-18T09:53:16.150Z,99.99
2017-03-18T09:54:25.440Z,99.99
2017-03-18T09:55:34.394Z,99.99
2017-03-18T09:56:43.698Z,99.99
2017-03-18T09:57:52.655Z,99.99
2017-03-18T09:59:01.616Z,99.99
2017-03-18T10:00:10.573Z,99.99
2017-03-18T10:01:19.530Z,99.99
2017-03-18T10:02:28.736Z,99.99
2017-03-18T10:03:37.690Z,99.99
2017-03-18T10:04:46.650Z,99.99
2017-03-18T10:05:55.607Z,99.99
2017-03-18T10:07:04.652Z,99.99
2017-03-18T10:08:14.008Z,99.99
2017-03-18T10:09:22.970Z,99.99
2017-03-18T10:10:31.927Z,99.99
2017-03-18T10:11:40.879Z,99.99
2017-03-18T10:12:49.834Z,99.99
2017-03-18T10:13:59.094Z,99.99
2017-03-18T10:15:08.058Z,99.99
2017-03-18T10:16:17.009Z,99.99
2017-03-18T10:17:25.967Z,99.99
2017-03-18T10:18:34.923Z,99.99
2017-03-18T10:19:44.178Z,99.99
2017-03-18T10:20:53.130Z,99.99
2017-03-18T10:22:02.080Z,99.99
2017-03-18T10:23:11.044Z,99.99
2017-03-18T10:24:19.996Z,99.99
2017-03-18T10:25:29.247Z,99.99
2017-03-18T10:26:38.209Z,99.99
2017-03-18T10:27:47.251Z,99.99
2017-03-18T10:28:56.299Z,99.99
2017-03-18T10:30:05.262Z,99.99
2017-03-18T10:31:14.519Z,99.99
2017-03-18T10:32:23.473Z,99.99
2017-03-18T10:33:32.427Z,99.99
2017-03-18T10:34:41.392Z,99.99
2017-03-18T10:35:50.345Z,99.99
2017-03-18T10:36:59.595Z,99.99
2017-03-18T10:38:08.554Z,99.99
2017-03-18T10:39:17.516Z,99.99
2017-03-18T10:40:26.478Z,99.99
2017-03-18T10:41:35.433Z,99.99
2017-03-18T10:42:44.690Z,99.99
2017-03-18T10:43:53.655Z,99.99
2017-03-18T10:45:02.611Z,99.99
2017-03-18T10:46:11.562Z,99.99
2017-03-18T10:47:20.520Z,99.99
2017-03-18T10:48:29.778Z,99.99
2017-03-18T10:49:38.738Z,99.99
2017-03-18T10:50:47.692Z,99.99
2017-03-18T10:51:56.655Z,99.99
2017-03-18T10:53:05.617Z,99.99
2017-03-18T10:54:14.875Z,99.99
2017-03-18T10:55:23.836Z,99.99
2017-03-18T10:56:32.787Z,99.99
2017-03-18T10:57:41.827Z,99.99
2017-03-18T10:58:50.787Z,99.99
2017-03-18T11:00:00.050Z,99.99
2017-03-18T11:01:09.004Z,99.99
2017-03-18T11:02:17.963Z,99.99
2017-03-18T11:03:26.929Z,99.99
2017-03-18T11:04:35.887Z,99.99
2017-03-18T11:05:45.096Z,99.99
2017-03-18T11:06:54.040Z,99.99
2017-03-18T11:08:03.087Z,99.99
2017-03-18T11:09:12.043Z,99.99
2017-03-18T11:10:21.003Z,99.99
2017-03-18T11:11:30.266Z,99.99
2017-03-18T11:12:39.310Z,99.99
2017-03-18T11:13:48.275Z,99.99
2017-03-18T11:14:57.239Z,99.99
2017-03-18T11:16:06.200Z,99.99
2017-03-18T11:17:15.470Z,99.99
2017-03-18T11:18:24.428Z,99.99
2017-03-18T11:19:33.420Z,99.99
2017-03-18T11:20:42.383Z,99.99
2017-03-18T11:21:51.337Z,99.99
2017-03-18T11:23:00.592Z,99.99
2017-03-18T11:24:09.555Z,99.99
2017-03-18T11:25:18.518Z,99.99
2017-03-18T11:26:27.560Z,99.99
2017-03-18T11:27:36.514Z,99.99
2017-03-18T11:28:45.776Z,99.99
2017-03-18T11:29:54.742Z,99.99
2017-03-18T11:31:03.705Z,99.99
2017-03-18T11:32:12.662Z,99.99
2017-03-18T11:33:21.620Z,99.99
2017-03-18T11:34:30.831Z,99.99
2017-03-18T11:35:39.796Z,99.99
2017-03-18T11:36:48.843Z,99.99
2017-03-18T11:37:57.803Z,99.99
2017-03-18T11:39:06.766Z,99.99
2017-03-18T11:40:15.979Z,99.99
2017-03-18T11:41:24.936Z,99.99
2017-03-18T11:42:33.889Z,99.99
2017-03-18T11:43:42.844Z,99.99
2017-03-18T11:44:51.805Z,99.99
2017-03-18T11:46:01.012Z,99.99
2017-03-18T11:47:09.971Z,99.99
2017-03-18T11:48:18.939Z,99.99
2017-03-18T11:49:27.931Z,99.99
2017-03-18T11:50:36.900Z,99.99
2017-03-18T11:51:46.105Z,99.22
2017-03-18T11:52:55.060Z,99.02
2017-03-18T11:54:04.028Z,99.99
2017-03-18T11:55:12.998Z,98.83
2017-03-18T11:56:21.950Z,99.6
2017-03-18T11:57:31.216Z,99.79
2017-03-18T11:58:40.175Z,99.31
2017-03-18T11:59:49.136Z,99.98
2017-03-18T12:00:58.095Z,99.99
2017-03-18T12:02:07.047Z,99.99
2017-03-18T12:03:16.301Z,99.6
2017-03-18T12:04:25.270Z,99.99
2017-03-18T12:05:34.257Z,99.99
2017-03-18T12:06:43.298Z,99.5
2017-03-18T12:07:52.262Z,96.94
2017-03-18T12:09:01.472Z,96.08
2017-03-18T12:10:10.429Z,95.89
2017-03-18T12:11:19.382Z,95.6
2017-03-18T12:12:28.334Z,96.46
2017-03-18T12:13:37.293Z,94.27
2017-03-18T12:14:46.551Z,94.37
2017-03-18T12:15:55.506Z,93.51
2017-03-18T12:17:04.462Z,94.27
2017-03-18T12:18:13.420Z,94.18
2017-03-18T12:19:22.412Z,96.65
2017-03-18T12:20:31.672Z,94.93
2017-03-18T12:21:40.943Z,94.18
2017-03-18T12:22:49.904Z,95.03
2017-03-18T12:23:58.864Z,94.79
2017-03-18T12:25:08.146Z,92.32
2017-03-18T12:26:17.491Z,93.08
2017-03-18T12:27:26.774Z,92.79
2017-03-18T12:28:35.813Z,94.89
2017-03-18T12:29:45.102Z,93.65
2017-03-18T12:30:54.078Z,91.27
2017-03-18T12:32:03.420Z,89.84
2017-03-18T12:33:12.381Z,91.75
2017-03-18T12:34:21.341Z,93.37
2017-03-18T12:35:30.307Z,90.51
2017-03-18T12:36:39.266Z,87.94
2017-03-18T12:37:48.518Z,92.79
2017-03-18T12:38:57.476Z,94.03
2017-03-18T12:40:06.432Z,94.7
2017-03-18T12:41:15.404Z,92.89
2017-03-18T12:42:24.446Z,88.04
2017-03-18T12:43:33.701Z,88.27
2017-03-18T12:44:42.669Z,91.46
2017-03-18T12:45:51.629Z,88.7
2017-03-18T12:47:00.585Z,90.99
2017-03-18T12:48:09.544Z,91.75
2017-03-18T12:49:18.817Z,91.41
2017-03-18T12:50:27.867Z,90.8
2017-03-18T12:51:36.822Z,88.99
2017-03-18T12:52:45.859Z,89.51
2017-03-18T12:53:54.821Z,86.75
2017-03-18T12:55:04.410Z,86.04
2017-03-18T12:56:13.363Z,86.32
2017-03-18T12:57:22.405Z,86.04
2017-03-18T12:58:31.359Z,88.51
2017-03-18T12:59:40.320Z,85.94
2017-03-18T13:00:49.658Z,84.8
2017-03-18T13:01:58.610Z,82.04
2017-03-18T13:03:07.892Z,81.66
2017-03-18T13:04:16.855Z,82.32
2017-03-18T13:05:25.813Z,83.85
2017-03-18T13:06:35.064Z,85.08
2017-03-18T13:07:44.022Z,90.03
2017-03-18T13:08:52.983Z,89.37
2017-03-18T13:10:01.948Z,88.89
2017-03-18T13:11:10.903Z,86.13
2017-03-18T13:12:20.161Z,84.33
2017-03-18T13:13:29.116Z,84.04
2017-03-18T13:14:38.079Z,81.85
2017-03-18T13:15:47.036Z,82.8
2017-03-18T13:16:55.989Z,84.33
2017-03-18T13:18:05.367Z,82.51
2017-03-18T13:19:14.331Z,82.61
2017-03-18T13:20:23.295Z,80.61
2017-03-18T13:21:32.248Z,80.99
2017-03-18T13:22:41.200Z,79.57
2017-03-18T13:23:50.548Z,80.13
2017-03-18T13:24:59.511Z,80.13
2017-03-18T13:26:08.462Z,80.33
2017-03-18T13:27:17.446Z,83.09
2017-03-18T13:28:26.403Z,81.18
2017-03-18T13:29:35.693Z,81.76
2017-03-18T13:30:44.645Z,79.09
2017-03-18T13:31:53.603Z,78.8
2017-03-18T13:33:02.567Z,78.71
2017-03-18T13:34:11.541Z,79.85
2017-03-18T13:35:20.764Z,79.09
2017-03-18T13:36:29.719Z,79.6
2017-03-18T13:37:38.679Z,82.14
2017-03-18T13:38:47.637Z,77.03
2017-03-18T13:39:56.596Z,75.51
2017-03-18T13:41:05.816Z,75.47
2017-03-18T13:42:14.770Z,75.76
2017-03-18T13:43:23.727Z,74.9
2017-03-18T13:44:32.691Z,77.95
2017-03-18T13:45:41.649Z,75.76
2017-03-18T13:46:50.911Z,75.19
2017-03-18T13:47:59.956Z,74.52
2017-03-18T13:49:09.236Z,75.47
2017-03-18T13:50:18.202Z,75.76
2017-03-18T13:51:27.156Z,73.47
2017-03-18T13:52:36.419Z,75.95
2017-03-18T13:53:45.699Z,75.28
2017-03-18T13:54:54.664Z,77.28
2017-03-18T13:56:03.626Z,79.38
2017-03-18T13:57:12.586Z,76.9
2017-03-18T13:58:21.843Z,79.66
2017-03-18T13:59:31.131Z,76.42
2017-03-18T14:00:40.084Z,79.75
2017-03-18T14:01:49.042Z,80.33
2017-03-18T14:02:58.009Z,75.85
2017-03-18T14:04:07.268Z,74.24
2017-03-18T14:05:16.228Z,74.62
2017-03-18T14:06:25.185Z,73.38
2017-03-18T14:07:34.137Z,71.28
2017-03-18T14:08:43.111Z,73.19
2017-03-18T14:09:52.376Z,71.76
2017-03-18T14:11:01.345Z,74.24
2017-03-18T14:12:10.305Z,72.86
2017-03-18T14:13:19.257Z,73.57
2017-03-18T14:14:28.227Z,76.33
2017-03-18T14:15:37.485Z,74.62
2017-03-18T14:16:46.441Z,73.57
2017-03-18T14:17:55.393Z,74.14
2017-03-18T14:19:04.440Z,73.38
2017-03-18T14:20:13.401Z,71.28
2017-03-18T14:21:22.656Z,72.62
2017-03-18T14:22:31.608Z,76.33
2017-03-18T14:23:40.571Z,71.47
2017-03-18T14:24:49.535Z,70.33
2017-03-18T14:25:58.497Z,69.29
2017-03-18T14:27:07.706Z,71.28
2017-03-18T14:28:16.671Z,69.95
2017-03-18T14:29:25.636Z,69.48
2017-03-18T14:30:34.591Z,70.9
2017-03-18T14:31:43.551Z,69.29
2017-03-18T14:32:52.898Z,70.14
2017-03-18T14:34:02.263Z,70.05
2017-03-18T14:35:11.225Z,69.29
2017-03-18T14:36:20.180Z,71.47
2017-03-18T14:37:29.139Z,73
2017-03-18T14:38:38.354Z,70.33
2017-03-18T14:39:47.321Z,71.67
2017-03-18T14:40:56.282Z,76.2
2017-03-18T14:42:05.244Z,74.9
2017-03-18T14:43:14.201Z,73.76
2017-03-18T14:44:23.458Z,70.14
2017-03-18T14:45:32.421Z,70.05
2017-03-18T14:46:41.376Z,70.43
2017-03-18T14:47:50.419Z,70.14
2017-03-18T14:48:59.380Z,71.47
2017-03-18T14:50:08.656Z,71.09
2017-03-18T14:51:17.616Z,75.38